CYQB

Quebec / Jean Lesage International Airport

Quebec, , Canada
TAF AMD CYQB 200619Z 2006/2106 06015G25KT 11/2SM -SN OVC012 TEMPO 2006/2010 3SM -SN OVC025 FM201000 06020G30KT 3/4SM -SN BLSN VV006 FM201800 08022G35KT 1/2SM -SN BLSN VV004 PROB30 2018/2023 1/4SM SN BLSN VV002 FM202300 02012KT 11/2SM -SN OVC015 TEMPO 2023/2101 4SM -SN OVC030 FM210100 28009KT 4SM -SN OVC040 RMK NXT FCST BY 201200Z
Issued Valid From Valid To
Jan-20 @ 06:19 UTC
(5 hours ago)
Jan-20 @ 06:00 UTC
(6 hours ago)
Jan-21 @ 06:00 UTC
(in 18 hours)
Expired Click to View Jan-20 @ 06:00 to Jan-20 @ 10:00
TAF AMD CYQB 200619Z 2006/2106 06015G25KT 11/2SM -SN OVC012
Wind Visibility Clouds Conditions
60° at 15 knots
 Gusting to 25 knots
1 1/2 miles
  • Overcast at 1,200' AGL
  • Light Snow
Expired Click to View Jan-20 @ 06:00 to Jan-20 @ 10:00
TEMPO 2006/2010 3SM -SN OVC025
Visibility Clouds Conditions
3 miles
  • Overcast at 2,500' AGL
  • Light Snow
From Jan-20 @ 10:00 to Jan-20 @ 18:00
FM201000 06020G30KT 3/4SM -SN BLSN VV006
Wind Visibility Clouds Conditions
60° at 20 knots
 Gusting to 30 knots
3/4 miles
  • Vertical visibility at 600' AGL
  • Light Snow
  • Blowing
  • Snow
From Jan-20 @ 18:00 to Jan-20 @ 23:00
FM201800 08022G35KT 1/2SM -SN BLSN VV004
Wind Visibility Clouds Conditions
80° at 22 knots
 Gusting to 35 knots
1/2 miles
  • Vertical visibility at 400' AGL
  • Light Snow
  • Blowing
  • Snow
Probable  (Probability 30%) Jan-20 @ 18:00 to Jan-20 @ 23:00
PROB30 2018/2023 1/4SM SN BLSN VV002
Visibility Clouds Conditions
1/4 miles
  • Vertical visibility at 200' AGL
  • Snow
  • Blowing
  • Snow
From Jan-20 @ 23:00 to Jan-21 @ 01:00
FM202300 02012KT 11/2SM -SN OVC015
Wind Visibility Clouds Conditions
20° at 12 knots 1 1/2 miles
  • Overcast at 1,500' AGL
  • Light Snow
Temporary Jan-20 @ 23:00 to Jan-21 @ 01:00
TEMPO 2023/2101 4SM -SN OVC030
Visibility Clouds Conditions
4 miles
  • Overcast at 3,000' AGL
  • Light Snow
From Jan-21 @ 01:00 to Jan-21 @ 06:00
FM210100 28009KT 4SM -SN OVC040 RMK NXT FCST BY 201200Z
Wind Visibility Clouds Conditions
280° at 9 knots 4 miles
  • Overcast at 4,000' AGL
  • Light Snow
TAF AMD CYQB 200619Z 2006/2106 06015G25KT 11/2SM -SN OVC012 TEMPO 2006/2010 3SM -SN OVC025 FM201000 06020G30KT 3/4SM -SN BLSN VV006 FM201800 08022G35KT 1/2SM -SN BLSN VV004 PROB30 2018/2023 1/4SM SN BLSN VV002 FM202300 02012KT 11/2SM -SN OVC015 TEMPO 2023/2101 4SM -SN OVC030 FM210100 28009KT 4SM -SN OVC040 RMK NXT FCST BY 201200Z
Issued Jan-20 @ 06:19 UTC
(5 hours ago)
Valid From Jan-20 @ 06:00 UTC
(6 hours ago)
Valid To Jan-21 @ 06:00 UTC
(in 18 hours)
Jan-20 @ 06:00 - Jan-20 @ 10:00
Wind Visibility
60° at 15 knots
 Gusting to 25 knots
1 1/2 miles
Clouds
  • Overcast at 1,200' AGL
Conditions
  • Light Snow
Jan-20 @ 06:00 - Jan-20 @ 10:00
Clouds
  • Overcast at 2,500' AGL
Conditions
  • Light Snow
From Jan-20 @ 10:00 - Jan-20 @ 18:00
Wind Visibility
60° at 20 knots
 Gusting to 30 knots
3/4 miles
Clouds
  • Vertical visibility at 600' AGL
Conditions
  • Light Snow
  • Blowing
  • Snow
From Jan-20 @ 18:00 - Jan-20 @ 23:00
Wind Visibility
80° at 22 knots
 Gusting to 35 knots
1/2 miles
Clouds
  • Vertical visibility at 400' AGL
Conditions
  • Light Snow
  • Blowing
  • Snow
Probability 30% Probable Jan-20 @ 18:00 - Jan-20 @ 23:00
Clouds
  • Vertical visibility at 200' AGL
Conditions
  • Snow
  • Blowing
  • Snow
From Jan-20 @ 23:00 - Jan-21 @ 01:00
Wind Visibility
20° at 12 knots 1 1/2 miles
Clouds
  • Overcast at 1,500' AGL
Conditions
  • Light Snow
Temporary Jan-20 @ 23:00 - Jan-21 @ 01:00
Clouds
  • Overcast at 3,000' AGL
Conditions
  • Light Snow
From Jan-21 @ 01:00 - Jan-21 @ 06:00
Wind Visibility
280° at 9 knots 4 miles
Clouds
  • Overcast at 4,000' AGL
Conditions
  • Light Snow